ENKB/KSU METAR and TAF weather

Enter ICAO airport designator
Station Type Date Time Source
ENKB METAR 2020/07/12 05:50 UTC NOAA

ENKB 120550Z AUTO 20007KT 120V240 9999 FEW036/// BKN068/// 10/05 Q1013 RMK WIND 745FT 21020KT


Station Type Date Time Source
ENKB Decoded METAR 2020/07/12 05:50 UTC NOAA

Kristiansund / Kvernberget, Norway (ENKB) 63-07N 007-50E 62M
Jul 12, 2020 - 01:50 AM EDT / 2020.07.12 0550 UTC
Wind: from the SSW (200 degrees) at 8 MPH (7 KT) (direction variable):0
Visibility: greater than 7 mile(s):0
Sky conditions: mostly cloudy
Temperature: 50 F (10 C)
Dew Point: 41 F (5 C)
Relative Humidity: 71%
Pressure (altimeter): 29.91 in. Hg (1013 hPa)
ob: ENKB 120550Z AUTO 20007KT 120V240 9999 FEW036/// BKN068/// 10/05 Q1013 RMK WIND 745FT 21020KT
cycle: 6

Station Type Date Time Source
ENKB TAF 2010/02/05 07:50 UTC NOAA

METAR ENKB 050750Z 15011KT 110V200 9999 SCT055 BKN070 03/M05 Q1007

Example: see airport list